createdAt,value
2023-05-21T00:00:26.926Z,17.80
2023-05-21T00:05:28.874Z,18.40
2023-05-21T00:10:30.601Z,17.70
2023-05-21T00:15:32.363Z,18.30
2023-05-21T00:20:34.136Z,19.50
2023-05-21T00:25:36.041Z,19.00
2023-05-21T00:30:38.196Z,22.90
2023-05-21T00:35:40.083Z,19.60
2023-05-21T00:40:41.859Z,19.10
2023-05-21T00:45:47.517Z,18.20
2023-05-21T00:50:50.208Z,19.60
2023-05-21T00:55:52.069Z,17.80
2023-05-21T01:00:57.063Z,19.10
2023-05-21T01:06:01.504Z,18.60
2023-05-21T01:11:05.194Z,19.50
2023-05-21T01:16:08.990Z,23.70
2023-05-21T01:21:11.195Z,17.40
2023-05-21T01:26:13.132Z,18.70
2023-05-21T01:31:26.419Z,17.50
2023-05-21T01:36:34.789Z,17.10
2023-05-21T01:41:41.170Z,19.20
2023-05-21T01:46:42.893Z,20.50
2023-05-21T01:51:45.118Z,20.10
2023-05-21T01:56:48.044Z,21.10
2023-05-21T02:01:49.983Z,17.60
2023-05-21T02:06:52.038Z,18.80
2023-05-21T02:11:54.324Z,18.90
2023-05-21T02:16:56.848Z,17.50
2023-05-21T02:21:58.532Z,16.60
2023-05-21T02:27:00.402Z,16.30
2023-05-21T02:32:02.827Z,20.80
2023-05-21T02:37:04.674Z,17.20
2023-05-21T02:42:06.599Z,19.10
2023-05-21T02:47:10.413Z,16.50
2023-05-21T02:52:12.966Z,17.00
2023-05-21T02:57:15.263Z,18.90
2023-05-21T03:02:17.204Z,16.30
2023-05-21T03:07:20.122Z,17.10
2023-05-21T03:12:22.203Z,21.00
2023-05-21T03:17:23.992Z,20.00
2023-05-21T03:22:25.895Z,17.60
2023-05-21T03:27:28.010Z,17.30
2023-05-21T03:32:30.280Z,16.80
2023-05-21T03:37:32.727Z,18.60
2023-05-21T03:42:35.269Z,18.90
2023-05-21T03:47:37.338Z,16.30
2023-05-21T03:52:41.321Z,16.50
2023-05-21T03:57:43.804Z,18.30
2023-05-21T04:07:15.329Z,14.90
2023-05-21T04:12:19.184Z,11.30
2023-05-21T04:17:22.391Z,17.70
2023-05-21T04:22:26.835Z,11.20
2023-05-21T04:27:28.694Z,11.30
2023-05-21T04:32:33.546Z,9.50
2023-05-21T04:37:36.383Z,10.40
2023-05-21T04:42:39.280Z,10.40
2023-05-21T04:47:43.389Z,8.30
2023-05-21T04:52:45.739Z,9.20
2023-05-21T04:57:47.663Z,9.30
2023-05-21T05:02:49.729Z,8.50
2023-05-21T05:07:51.712Z,9.30
2023-05-21T05:12:53.668Z,11.60
2023-05-21T05:17:56.701Z,8.00
2023-05-21T05:22:58.638Z,9.70
2023-05-21T05:28:00.821Z,9.20
2023-05-21T05:33:02.997Z,8.50
2023-05-21T05:38:05.970Z,9.90
2023-05-21T05:43:07.925Z,7.70
2023-05-21T05:53:13.423Z,7.90
2023-05-21T05:58:15.634Z,7.90
2023-05-21T06:03:41.712Z,7.50
2023-05-21T06:08:46.608Z,6.90
2023-05-21T06:13:48.497Z,6.80
2023-05-21T06:18:51.492Z,6.60
2023-05-21T06:23:53.467Z,9.50
2023-05-21T06:28:56.675Z,6.50
2023-05-21T06:34:00.008Z,6.20
2023-05-21T06:39:03.417Z,6.60
2023-05-21T06:44:06.128Z,6.90
2023-05-21T06:49:35.039Z,6.60
2023-05-21T06:54:37.121Z,6.80
2023-05-21T06:59:39.369Z,6.90
2023-05-21T07:04:41.228Z,6.10
2023-05-21T07:09:42.950Z,8.80
2023-05-21T07:14:45.268Z,7.40
2023-05-21T07:19:47.182Z,7.30
2023-05-21T07:24:49.407Z,7.60
2023-05-21T07:29:52.359Z,6.80
2023-05-21T07:34:56.730Z,5.60
2023-05-21T07:40:00.475Z,7.30
2023-05-21T07:45:03.042Z,6.30
2023-05-21T07:50:08.766Z,14.00
2023-05-21T07:55:11.313Z,6.40
2023-05-21T08:00:14.310Z,7.10
2023-05-21T08:05:24.456Z,7.30
2023-05-21T08:10:26.400Z,6.00
2023-05-21T08:15:28.363Z,9.10
2023-05-21T08:20:32.248Z,6.00
2023-05-21T08:25:34.260Z,4.80
2023-05-21T08:30:37.573Z,6.70
2023-05-21T08:35:39.529Z,4.10
2023-05-21T08:40:59.582Z,4.40
2023-05-21T08:46:04.228Z,4.80
2023-05-21T08:51:07.826Z,5.60
2023-05-21T08:56:17.855Z,3.70
2023-05-21T09:01:42.298Z,3.50
2023-05-21T09:06:54.963Z,3.50
2023-05-21T09:12:10.148Z,6.00
2023-05-21T09:17:14.935Z,3.20
2023-05-21T09:22:17.652Z,3.70
2023-05-21T09:27:19.507Z,4.70
2023-05-21T09:32:21.382Z,3.10
2023-05-21T09:37:27.569Z,2.90
2023-05-21T09:42:30.156Z,5.40
2023-05-21T09:47:32.486Z,6.10
2023-05-21T09:52:37.295Z,2.70
2023-05-21T09:57:50.887Z,3.50
2023-05-21T10:03:01.818Z,3.20
2023-05-21T10:08:04.892Z,5.20
2023-05-21T10:13:10.365Z,3.30
2023-05-21T10:18:13.645Z,2.90
2023-05-21T10:23:15.699Z,3.00
2023-05-21T10:28:20.707Z,3.20
2023-05-21T10:33:25.073Z,4.80
2023-05-21T10:38:27.967Z,3.00
2023-05-21T10:43:48.588Z,3.80
2023-05-21T10:48:56.066Z,3.80
2023-05-21T10:54:36.996Z,4.30
2023-05-21T10:59:49.346Z,4.80
2023-05-21T11:04:58.751Z,2.30
2023-05-21T11:10:32.781Z,3.00
2023-05-21T11:15:57.747Z,3.20
2023-05-21T11:21:06.812Z,3.60
2023-05-21T11:26:08.561Z,6.20
2023-05-21T11:31:27.254Z,2.60
2023-05-21T11:36:29.135Z,3.00
2023-05-21T11:41:31.065Z,2.50
2023-05-21T11:46:34.274Z,2.30
2023-05-21T11:51:36.725Z,2.90
2023-05-21T11:56:42.028Z,2.90
2023-05-21T12:01:44.293Z,2.80
2023-05-21T12:06:46.129Z,3.80
2023-05-21T12:11:47.906Z,2.80
2023-05-21T12:16:49.952Z,4.40
2023-05-21T12:21:51.739Z,8.60
2023-05-21T12:26:55.195Z,3.60
2023-05-21T12:32:01.774Z,3.30
2023-05-21T12:37:05.508Z,2.60
2023-05-21T12:42:08.496Z,3.90
2023-05-21T12:47:11.263Z,5.00
2023-05-21T12:52:14.466Z,2.90
2023-05-21T12:57:17.474Z,2.70
2023-05-21T13:02:22.153Z,3.00
2023-05-21T13:07:26.331Z,4.10
2023-05-21T13:12:30.028Z,2.90
2023-05-21T13:17:32.315Z,2.40
2023-05-21T13:22:35.734Z,3.10
2023-05-21T13:27:39.696Z,4.10
2023-05-21T13:32:42.681Z,2.50
2023-05-21T13:37:45.071Z,4.30
2023-05-21T13:42:48.824Z,4.80
2023-05-21T13:47:50.789Z,3.10
2023-05-21T13:52:52.489Z,12.60
2023-05-21T13:57:54.379Z,2.40
2023-05-21T14:02:56.795Z,2.50
2023-05-21T14:07:58.950Z,2.60
2023-05-21T14:13:11.228Z,2.60
2023-05-21T14:18:17.765Z,5.80
2023-05-21T14:23:19.576Z,4.90
2023-05-21T14:28:21.859Z,2.30
2023-05-21T14:33:23.681Z,4.00
2023-05-21T14:38:25.995Z,9.80
2023-05-21T14:43:27.754Z,3.30
2023-05-21T14:48:29.514Z,3.60
2023-05-21T14:53:31.323Z,4.60
2023-05-21T14:58:33.182Z,5.30
2023-05-21T15:03:35.046Z,3.20
2023-05-21T15:08:36.958Z,3.30
2023-05-21T15:13:39.568Z,4.00
2023-05-21T15:18:41.357Z,8.20
2023-05-21T15:28:44.797Z,4.00
2023-05-21T15:33:46.566Z,3.60
2023-05-21T15:38:48.633Z,6.40
2023-05-21T15:43:50.394Z,2.30
2023-05-21T15:48:52.152Z,2.70
2023-05-21T15:53:54.512Z,3.20
2023-05-21T15:58:58.650Z,6.40
2023-05-21T16:04:03.372Z,5.90
2023-05-21T16:09:05.563Z,3.20
2023-05-21T16:14:07.408Z,2.80
2023-05-21T16:19:09.169Z,4.60
2023-05-21T16:24:11.023Z,2.70
2023-05-21T16:29:14.851Z,2.70
2023-05-21T16:34:16.611Z,2.50
2023-05-21T16:39:18.442Z,5.30
2023-05-21T16:44:20.424Z,5.60
2023-05-21T16:49:22.180Z,3.60
2023-05-21T16:54:23.913Z,2.60
2023-05-21T16:59:25.676Z,6.10
2023-05-21T17:04:27.424Z,6.90
2023-05-21T17:09:29.397Z,5.60
2023-05-21T17:14:34.178Z,3.00
2023-05-21T17:19:37.557Z,4.40
2023-05-21T17:24:39.505Z,4.20
2023-05-21T17:29:41.492Z,2.90
2023-05-21T17:34:44.051Z,3.20
2023-05-21T17:39:46.050Z,4.10
2023-05-21T17:44:47.785Z,8.20
2023-05-21T17:49:49.512Z,5.70
2023-05-21T17:54:51.491Z,5.00
2023-05-21T17:59:53.276Z,8.90
2023-05-21T18:04:55.136Z,5.70
2023-05-21T18:09:57.048Z,10.00
2023-05-21T18:14:58.869Z,3.80
2023-05-21T18:20:00.648Z,4.30
2023-05-21T18:25:03.548Z,3.60
2023-05-21T18:30:08.585Z,3.10
2023-05-21T18:35:12.005Z,3.10
2023-05-21T18:40:16.980Z,3.90
2023-05-21T18:45:18.757Z,5.60
2023-05-21T18:50:20.605Z,11.70
2023-05-21T18:55:22.621Z,3.80
2023-05-21T19:00:24.348Z,3.40
2023-05-21T19:05:26.389Z,6.50
2023-05-21T19:10:30.697Z,6.80
2023-05-21T19:15:33.021Z,7.80
2023-05-21T19:20:36.984Z,5.40
2023-05-21T19:25:39.254Z,8.00
2023-05-21T19:30:41.097Z,6.70
2023-05-21T19:35:43.489Z,5.30
2023-05-21T19:40:45.512Z,8.70
2023-05-21T19:45:47.426Z,12.10
2023-05-21T19:50:49.185Z,22.00
2023-05-21T19:55:51.188Z,9.10
2023-05-21T20:00:55.803Z,10.20
2023-05-21T20:05:58.682Z,15.00
2023-05-21T20:11:00.877Z,7.90
2023-05-21T20:16:02.613Z,6.00
2023-05-21T20:21:06.398Z,9.30
2023-05-21T20:26:08.388Z,8.60
2023-05-21T20:31:10.196Z,6.80
2023-05-21T20:36:15.292Z,6.20
2023-05-21T20:41:17.321Z,5.90
2023-05-21T20:46:19.944Z,6.20
2023-05-21T20:51:21.842Z,8.50
2023-05-21T20:56:39.884Z,4.30
2023-05-21T21:01:43.643Z,6.10
2023-05-21T21:06:47.277Z,4.20
2023-05-21T21:11:50.740Z,6.70
2023-05-21T21:16:54.350Z,5.70
2023-05-21T21:21:56.246Z,5.90
2023-05-21T21:26:58.023Z,7.60
2023-05-21T21:31:59.890Z,7.80
2023-05-21T21:37:01.669Z,6.20
2023-05-21T21:42:04.309Z,8.00
2023-05-21T21:47:09.855Z,4.10
2023-05-21T21:52:14.751Z,7.00
2023-05-21T21:57:16.535Z,6.70
2023-05-21T22:02:18.525Z,4.90
2023-05-21T22:07:20.799Z,5.00
2023-05-21T22:12:22.691Z,3.00
2023-05-21T22:17:24.496Z,5.90
2023-05-21T22:22:26.747Z,5.90
2023-05-21T22:27:28.687Z,5.40
2023-05-21T22:32:30.778Z,5.40
2023-05-21T22:37:32.586Z,6.30
2023-05-21T22:42:35.151Z,4.30
2023-05-21T22:47:39.734Z,4.80
2023-05-21T22:52:41.929Z,4.00
2023-05-21T22:57:44.309Z,4.40
2023-05-21T23:02:47.505Z,4.70
2023-05-21T23:07:50.036Z,6.10
2023-05-21T23:12:54.192Z,5.00
2023-05-21T23:17:56.920Z,3.90
2023-05-21T23:22:58.911Z,7.30
2023-05-21T23:28:00.673Z,5.70
2023-05-21T23:33:02.632Z,5.60
2023-05-21T23:38:05.219Z,4.60
2023-05-21T23:43:18.131Z,4.60
2023-05-21T23:48:23.344Z,4.70
2023-05-21T23:53:25.886Z,5.80
2023-05-21T23:58:27.625Z,3.90
